sensor_id;sensor_type;location;lat;lon;timestamp;P1;durP1;ratioP1;P2;durP2;ratioP2
24279;SDS011;12395;42.808;23.408;2023-07-28T00:00:56;2.92;;;2.30;;
24279;SDS011;12395;42.808;23.408;2023-07-28T00:03:21;4.72;;;2.28;;
24279;SDS011;12395;42.808;23.408;2023-07-28T00:05:47;3.22;;;2.20;;
24279;SDS011;12395;42.808;23.408;2023-07-28T00:08:12;4.70;;;2.50;;
24279;SDS011;12395;42.808;23.408;2023-07-28T00:10:41;3.58;;;2.40;;
24279;SDS011;12395;42.808;23.408;2023-07-28T00:13:07;3.70;;;2.33;;
24279;SDS011;12395;42.808;23.408;2023-07-28T00:15:33;3.80;;;2.45;;
24279;SDS011;12395;42.808;23.408;2023-07-28T00:17:58;3.55;;;2.60;;
24279;SDS011;12395;42.808;23.408;2023-07-28T00:20:25;3.10;;;2.30;;
24279;SDS011;12395;42.808;23.408;2023-07-28T00:22:50;5.80;;;2.80;;
24279;SDS011;12395;42.808;23.408;2023-07-28T00:25:15;3.80;;;2.47;;
24279;SDS011;12395;42.808;23.408;2023-07-28T00:27:41;3.60;;;2.58;;
24279;SDS011;12395;42.808;23.408;2023-07-28T00:30:06;2.35;;;2.10;;
24279;SDS011;12395;42.808;23.408;2023-07-28T00:32:32;2.83;;;2.40;;
24279;SDS011;12395;42.808;23.408;2023-07-28T00:34:57;3.05;;;2.45;;
24279;SDS011;12395;42.808;23.408;2023-07-28T00:37:23;4.15;;;2.72;;
24279;SDS011;12395;42.808;23.408;2023-07-28T00:39:48;3.75;;;2.58;;
24279;SDS011;12395;42.808;23.408;2023-07-28T00:42:13;3.42;;;2.65;;
24279;SDS011;12395;42.808;23.408;2023-07-28T00:44:39;2.47;;;2.20;;
24279;SDS011;12395;42.808;23.408;2023-07-28T00:47:04;5.38;;;2.50;;
24279;SDS011;12395;42.808;23.408;2023-07-28T00:49:30;3.95;;;2.47;;
24279;SDS011;12395;42.808;23.408;2023-07-28T00:51:56;4.25;;;2.58;;
24279;SDS011;12395;42.808;23.408;2023-07-28T00:54:22;4.85;;;2.83;;
24279;SDS011;12395;42.808;23.408;2023-07-28T00:56:48;3.40;;;2.60;;
24279;SDS011;12395;42.808;23.408;2023-07-28T00:59:14;3.63;;;2.60;;
24279;SDS011;12395;42.808;23.408;2023-07-28T01:01:40;4.07;;;2.70;;
24279;SDS011;12395;42.808;23.408;2023-07-28T01:04:05;2.97;;;2.67;;
24279;SDS011;12395;42.808;23.408;2023-07-28T01:09:15;4.80;;;2.80;;
24279;SDS011;12395;42.808;23.408;2023-07-28T01:11:53;5.00;;;3.10;;
24279;SDS011;12395;42.808;23.408;2023-07-28T01:14:20;4.25;;;3.00;;
24279;SDS011;12395;42.808;23.408;2023-07-28T01:16:45;3.65;;;2.90;;
24279;SDS011;12395;42.808;23.408;2023-07-28T01:19:11;3.80;;;2.97;;
24279;SDS011;12395;42.808;23.408;2023-07-28T01:21:37;4.30;;;3.20;;
24279;SDS011;12395;42.808;23.408;2023-07-28T01:26:40;4.38;;;3.10;;
24279;SDS011;12395;42.808;23.408;2023-07-28T01:29:06;5.43;;;3.22;;
24279;SDS011;12395;42.808;23.408;2023-07-28T01:31:32;3.85;;;3.00;;
24279;SDS011;12395;42.808;23.408;2023-07-28T01:33:57;5.68;;;3.45;;
24279;SDS011;12395;42.808;23.408;2023-07-28T01:36:23;4.50;;;3.15;;
24279;SDS011;12395;42.808;23.408;2023-07-28T01:38:49;4.50;;;3.40;;
24279;SDS011;12395;42.808;23.408;2023-07-28T01:41:14;4.45;;;2.92;;
24279;SDS011;12395;42.808;23.408;2023-07-28T01:43:39;4.50;;;3.33;;
24279;SDS011;12395;42.808;23.408;2023-07-28T01:46:06;5.15;;;3.42;;
24279;SDS011;12395;42.808;23.408;2023-07-28T01:48:32;3.80;;;3.25;;
24279;SDS011;12395;42.808;23.408;2023-07-28T01:50:57;4.68;;;3.53;;
24279;SDS011;12395;42.808;23.408;2023-07-28T01:53:23;5.10;;;3.45;;
24279;SDS011;12395;42.808;23.408;2023-07-28T01:55:48;4.93;;;3.35;;
24279;SDS011;12395;42.808;23.408;2023-07-28T01:58:13;5.13;;;3.55;;
24279;SDS011;12395;42.808;23.408;2023-07-28T02:00:39;6.25;;;3.85;;
24279;SDS011;12395;42.808;23.408;2023-07-28T02:03:04;5.75;;;3.70;;
24279;SDS011;12395;42.808;23.408;2023-07-28T02:05:30;4.88;;;3.55;;
24279;SDS011;12395;42.808;23.408;2023-07-28T02:07:56;5.38;;;3.83;;
24279;SDS011;12395;42.808;23.408;2023-07-28T02:10:22;4.90;;;3.78;;
24279;SDS011;12395;42.808;23.408;2023-07-28T02:12:48;5.57;;;3.90;;
24279;SDS011;12395;42.808;23.408;2023-07-28T02:15:16;5.75;;;3.92;;
24279;SDS011;12395;42.808;23.408;2023-07-28T02:17:41;5.30;;;3.55;;
24279;SDS011;12395;42.808;23.408;2023-07-28T02:20:07;5.18;;;3.90;;
24279;SDS011;12395;42.808;23.408;2023-07-28T02:22:35;5.85;;;3.78;;
24279;SDS011;12395;42.808;23.408;2023-07-28T02:25:01;5.45;;;3.72;;
24279;SDS011;12395;42.808;23.408;2023-07-28T02:27:27;6.00;;;4.15;;
24279;SDS011;12395;42.808;23.408;2023-07-28T02:29:52;6.57;;;4.10;;
24279;SDS011;12395;42.808;23.408;2023-07-28T02:32:18;6.93;;;4.72;;
24279;SDS011;12395;42.808;23.408;2023-07-28T02:34:44;4.65;;;3.88;;
24279;SDS011;12395;42.808;23.408;2023-07-28T02:37:09;6.50;;;4.28;;
24279;SDS011;12395;42.808;23.408;2023-07-28T02:39:35;7.22;;;4.30;;
24279;SDS011;12395;42.808;23.408;2023-07-28T02:42:00;6.70;;;4.25;;
24279;SDS011;12395;42.808;23.408;2023-07-28T02:44:26;5.40;;;3.92;;
24279;SDS011;12395;42.808;23.408;2023-07-28T02:46:51;5.32;;;3.95;;
24279;SDS011;12395;42.808;23.408;2023-07-28T02:49:17;6.68;;;4.50;;
24279;SDS011;12395;42.808;23.408;2023-07-28T02:51:42;5.10;;;4.30;;
24279;SDS011;12395;42.808;23.408;2023-07-28T02:54:08;5.60;;;4.10;;
24279;SDS011;12395;42.808;23.408;2023-07-28T02:56:33;5.72;;;4.28;;
24279;SDS011;12395;42.808;23.408;2023-07-28T02:59:02;6.85;;;4.00;;
24279;SDS011;12395;42.808;23.408;2023-07-28T03:01:29;5.75;;;4.32;;
24279;SDS011;12395;42.808;23.408;2023-07-28T03:03:58;8.27;;;4.70;;
24279;SDS011;12395;42.808;23.408;2023-07-28T03:06:27;5.70;;;4.50;;
24279;SDS011;12395;42.808;23.408;2023-07-28T03:08:52;5.95;;;4.43;;
24279;SDS011;12395;42.808;23.408;2023-07-28T03:11:18;6.65;;;4.50;;
24279;SDS011;12395;42.808;23.408;2023-07-28T03:13:43;7.47;;;5.00;;
24279;SDS011;12395;42.808;23.408;2023-07-28T03:16:08;8.25;;;5.07;;
24279;SDS011;12395;42.808;23.408;2023-07-28T03:18:34;7.28;;;5.40;;
24279;SDS011;12395;42.808;23.408;2023-07-28T03:21:00;8.43;;;5.53;;
24279;SDS011;12395;42.808;23.408;2023-07-28T03:23:25;7.18;;;5.40;;
24279;SDS011;12395;42.808;23.408;2023-07-28T03:25:51;7.28;;;5.15;;
24279;SDS011;12395;42.808;23.408;2023-07-28T03:28:16;7.10;;;5.50;;
24279;SDS011;12395;42.808;23.408;2023-07-28T03:30:42;7.47;;;5.32;;
24279;SDS011;12395;42.808;23.408;2023-07-28T03:33:07;10.07;;;5.60;;
24279;SDS011;12395;42.808;23.408;2023-07-28T03:35:32;8.02;;;5.20;;
24279;SDS011;12395;42.808;23.408;2023-07-28T03:37:58;6.80;;;5.03;;
24279;SDS011;12395;42.808;23.408;2023-07-28T03:40:23;9.00;;;5.60;;
24279;SDS011;12395;42.808;23.408;2023-07-28T03:42:49;8.02;;;5.50;;
24279;SDS011;12395;42.808;23.408;2023-07-28T03:45:14;8.55;;;5.88;;
24279;SDS011;12395;42.808;23.408;2023-07-28T03:47:40;8.68;;;5.55;;
24279;SDS011;12395;42.808;23.408;2023-07-28T03:50:05;7.68;;;5.30;;
24279;SDS011;12395;42.808;23.408;2023-07-28T03:52:31;8.73;;;5.90;;
24279;SDS011;12395;42.808;23.408;2023-07-28T03:54:56;7.43;;;5.82;;
24279;SDS011;12395;42.808;23.408;2023-07-28T03:57:22;8.38;;;5.97;;
24279;SDS011;12395;42.808;23.408;2023-07-28T03:59:47;8.05;;;5.78;;
24279;SDS011;12395;42.808;23.408;2023-07-28T04:02:12;7.63;;;5.40;;
24279;SDS011;12395;42.808;23.408;2023-07-28T04:04:38;8.40;;;5.60;;
24279;SDS011;12395;42.808;23.408;2023-07-28T04:07:03;7.50;;;5.22;;
24279;SDS011;12395;42.808;23.408;2023-07-28T04:09:29;8.20;;;5.43;;
24279;SDS011;12395;42.808;23.408;2023-07-28T04:11:54;8.30;;;5.85;;
24279;SDS011;12395;42.808;23.408;2023-07-28T04:14:19;8.93;;;5.70;;
24279;SDS011;12395;42.808;23.408;2023-07-28T04:16:45;8.90;;;6.03;;
24279;SDS011;12395;42.808;23.408;2023-07-28T04:19:10;7.93;;;5.90;;
24279;SDS011;12395;42.808;23.408;2023-07-28T04:21:36;9.00;;;6.10;;
24279;SDS011;12395;42.808;23.408;2023-07-28T04:24:05;8.80;;;6.05;;
24279;SDS011;12395;42.808;23.408;2023-07-28T04:26:31;9.27;;;6.28;;
24279;SDS011;12395;42.808;23.408;2023-07-28T04:28:57;7.22;;;5.40;;
24279;SDS011;12395;42.808;23.408;2023-07-28T04:31:22;9.75;;;5.68;;
24279;SDS011;12395;42.808;23.408;2023-07-28T04:33:47;7.90;;;5.65;;
24279;SDS011;12395;42.808;23.408;2023-07-28T04:36:13;8.25;;;6.05;;
24279;SDS011;12395;42.808;23.408;2023-07-28T04:38:38;8.23;;;6.10;;
24279;SDS011;12395;42.808;23.408;2023-07-28T04:41:03;8.93;;;5.97;;
24279;SDS011;12395;42.808;23.408;2023-07-28T04:43:29;8.73;;;5.70;;
24279;SDS011;12395;42.808;23.408;2023-07-28T04:45:54;8.18;;;5.60;;
24279;SDS011;12395;42.808;23.408;2023-07-28T04:48:20;8.07;;;5.75;;
24279;SDS011;12395;42.808;23.408;2023-07-28T04:50:46;8.02;;;5.72;;
24279;SDS011;12395;42.808;23.408;2023-07-28T04:53:11;9.48;;;6.15;;
24279;SDS011;12395;42.808;23.408;2023-07-28T04:55:37;9.13;;;6.20;;
24279;SDS011;12395;42.808;23.408;2023-07-28T04:58:02;9.43;;;5.90;;
24279;SDS011;12395;42.808;23.408;2023-07-28T05:00:28;7.82;;;5.35;;
24279;SDS011;12395;42.808;23.408;2023-07-28T05:02:53;7.85;;;5.68;;
24279;SDS011;12395;42.808;23.408;2023-07-28T05:05:18;8.90;;;5.60;;
24279;SDS011;12395;42.808;23.408;2023-07-28T05:07:44;8.23;;;5.57;;
24279;SDS011;12395;42.808;23.408;2023-07-28T05:10:09;8.73;;;5.82;;
24279;SDS011;12395;42.808;23.408;2023-07-28T05:12:35;7.75;;;5.53;;
24279;SDS011;12395;42.808;23.408;2023-07-28T05:15:00;8.98;;;5.68;;
24279;SDS011;12395;42.808;23.408;2023-07-28T05:17:26;8.80;;;5.78;;
24279;SDS011;12395;42.808;23.408;2023-07-28T05:19:51;9.02;;;5.60;;
24279;SDS011;12395;42.808;23.408;2023-07-28T05:22:16;8.50;;;5.22;;
24279;SDS011;12395;42.808;23.408;2023-07-28T05:24:42;9.88;;;5.10;;
24279;SDS011;12395;42.808;23.408;2023-07-28T05:27:09;6.70;;;5.07;;
24279;SDS011;12395;42.808;23.408;2023-07-28T05:29:35;9.13;;;4.68;;
24279;SDS011;12395;42.808;23.408;2023-07-28T05:32:00;8.25;;;4.75;;
24279;SDS011;12395;42.808;23.408;2023-07-28T05:34:25;6.50;;;4.85;;
24279;SDS011;12395;42.808;23.408;2023-07-28T05:36:51;7.00;;;4.70;;
24279;SDS011;12395;42.808;23.408;2023-07-28T05:39:16;6.18;;;4.75;;
24279;SDS011;12395;42.808;23.408;2023-07-28T05:41:42;6.07;;;4.40;;
24279;SDS011;12395;42.808;23.408;2023-07-28T05:44:07;5.70;;;4.53;;
24279;SDS011;12395;42.808;23.408;2023-07-28T05:46:32;7.68;;;4.88;;
24279;SDS011;12395;42.808;23.408;2023-07-28T05:48:58;6.40;;;4.68;;
24279;SDS011;12395;42.808;23.408;2023-07-28T05:51:24;6.65;;;4.55;;
24279;SDS011;12395;42.808;23.408;2023-07-28T05:53:50;7.05;;;4.70;;
24279;SDS011;12395;42.808;23.408;2023-07-28T05:56:15;7.65;;;4.70;;
24279;SDS011;12395;42.808;23.408;2023-07-28T05:58:41;6.55;;;4.30;;
24279;SDS011;12395;42.808;23.408;2023-07-28T06:01:06;8.40;;;4.78;;
24279;SDS011;12395;42.808;23.408;2023-07-28T06:03:32;6.90;;;4.63;;
24279;SDS011;12395;42.808;23.408;2023-07-28T06:05:58;7.35;;;4.30;;
24279;SDS011;12395;42.808;23.408;2023-07-28T06:08:23;5.40;;;4.00;;
24279;SDS011;12395;42.808;23.408;2023-07-28T06:10:48;7.10;;;4.60;;
24279;SDS011;12395;42.808;23.408;2023-07-28T06:13:14;7.22;;;4.57;;
24279;SDS011;12395;42.808;23.408;2023-07-28T06:15:41;6.88;;;4.30;;
24279;SDS011;12395;42.808;23.408;2023-07-28T06:18:07;6.88;;;4.22;;
24279;SDS011;12395;42.808;23.408;2023-07-28T06:20:33;6.88;;;4.40;;
24279;SDS011;12395;42.808;23.408;2023-07-28T06:22:59;6.67;;;4.50;;
24279;SDS011;12395;42.808;23.408;2023-07-28T06:25:25;6.57;;;4.30;;
24279;SDS011;12395;42.808;23.408;2023-07-28T06:27:50;6.32;;;4.55;;
24279;SDS011;12395;42.808;23.408;2023-07-28T06:30:16;6.85;;;4.43;;
24279;SDS011;12395;42.808;23.408;2023-07-28T06:32:41;6.70;;;4.22;;
24279;SDS011;12395;42.808;23.408;2023-07-28T06:35:07;7.85;;;4.50;;
24279;SDS011;12395;42.808;23.408;2023-07-28T06:37:34;6.28;;;4.20;;
24279;SDS011;12395;42.808;23.408;2023-07-28T06:40:01;5.13;;;4.07;;
24279;SDS011;12395;42.808;23.408;2023-07-28T06:42:26;4.85;;;4.00;;
24279;SDS011;12395;42.808;23.408;2023-07-28T06:44:52;5.35;;;4.13;;
24279;SDS011;12395;42.808;23.408;2023-07-28T06:47:17;5.60;;;3.92;;
24279;SDS011;12395;42.808;23.408;2023-07-28T06:49:43;5.97;;;4.15;;
24279;SDS011;12395;42.808;23.408;2023-07-28T06:52:09;5.20;;;3.95;;
24279;SDS011;12395;42.808;23.408;2023-07-28T06:54:36;5.38;;;3.78;;
24279;SDS011;12395;42.808;23.408;2023-07-28T06:57:01;5.50;;;3.67;;
24279;SDS011;12395;42.808;23.408;2023-07-28T06:59:27;5.72;;;4.00;;
24279;SDS011;12395;42.808;23.408;2023-07-28T07:01:52;7.68;;;3.97;;
24279;SDS011;12395;42.808;23.408;2023-07-28T07:04:18;7.85;;;4.20;;
24279;SDS011;12395;42.808;23.408;2023-07-28T07:06:44;6.13;;;3.90;;
24279;SDS011;12395;42.808;23.408;2023-07-28T07:09:10;6.05;;;4.00;;
24279;SDS011;12395;42.808;23.408;2023-07-28T07:11:38;6.50;;;3.85;;
24279;SDS011;12395;42.808;23.408;2023-07-28T07:14:04;5.50;;;3.90;;
24279;SDS011;12395;42.808;23.408;2023-07-28T07:16:30;4.13;;;3.50;;
24279;SDS011;12395;42.808;23.408;2023-07-28T07:18:56;4.60;;;3.35;;
24279;SDS011;12395;42.808;23.408;2023-07-28T07:21:21;5.00;;;3.72;;
24279;SDS011;12395;42.808;23.408;2023-07-28T07:23:47;4.95;;;3.50;;
24279;SDS011;12395;42.808;23.408;2023-07-28T07:26:12;6.30;;;3.58;;
24279;SDS011;12395;42.808;23.408;2023-07-28T07:28:38;4.88;;;3.72;;
24279;SDS011;12395;42.808;23.408;2023-07-28T07:31:03;5.28;;;4.03;;
24279;SDS011;12395;42.808;23.408;2023-07-28T07:33:28;5.57;;;3.78;;
24279;SDS011;12395;42.808;23.408;2023-07-28T07:35:54;4.03;;;3.45;;
24279;SDS011;12395;42.808;23.408;2023-07-28T07:38:19;6.57;;;3.80;;
24279;SDS011;12395;42.808;23.408;2023-07-28T07:40:48;4.80;;;3.28;;
24279;SDS011;12395;42.808;23.408;2023-07-28T07:43:13;4.28;;;3.38;;
24279;SDS011;12395;42.808;23.408;2023-07-28T07:45:45;15.55;;;4.50;;
24279;SDS011;12395;42.808;23.408;2023-07-28T07:48:12;4.15;;;3.30;;
24279;SDS011;12395;42.808;23.408;2023-07-28T07:50:37;4.18;;;3.00;;
24279;SDS011;12395;42.808;23.408;2023-07-28T07:53:03;4.47;;;3.05;;
24279;SDS011;12395;42.808;23.408;2023-07-28T07:55:28;4.90;;;3.85;;
24279;SDS011;12395;42.808;23.408;2023-07-28T07:57:54;5.22;;;3.35;;
24279;SDS011;12395;42.808;23.408;2023-07-28T08:00:19;5.78;;;4.10;;
24279;SDS011;12395;42.808;23.408;2023-07-28T08:02:45;4.28;;;3.17;;
24279;SDS011;12395;42.808;23.408;2023-07-28T08:05:10;5.25;;;3.17;;
24279;SDS011;12395;42.808;23.408;2023-07-28T08:07:35;5.93;;;3.30;;
24279;SDS011;12395;42.808;23.408;2023-07-28T08:10:01;11.13;;;3.78;;
24279;SDS011;12395;42.808;23.408;2023-07-28T08:12:27;5.80;;;2.70;;
24279;SDS011;12395;42.808;23.408;2023-07-28T08:14:52;3.38;;;2.65;;
24279;SDS011;12395;42.808;23.408;2023-07-28T08:17:18;5.35;;;2.53;;
24279;SDS011;12395;42.808;23.408;2023-07-28T08:19:44;4.15;;;2.78;;
24279;SDS011;12395;42.808;23.408;2023-07-28T08:22:09;3.63;;;2.65;;
24279;SDS011;12395;42.808;23.408;2023-07-28T08:24:35;3.85;;;2.60;;
24279;SDS011;12395;42.808;23.408;2023-07-28T08:27:00;4.70;;;2.70;;
24279;SDS011;12395;42.808;23.408;2023-07-28T08:29:26;3.80;;;2.45;;
24279;SDS011;12395;42.808;23.408;2023-07-28T08:31:51;4.07;;;2.85;;
24279;SDS011;12395;42.808;23.408;2023-07-28T08:34:16;3.53;;;2.58;;
24279;SDS011;12395;42.808;23.408;2023-07-28T08:36:42;6.30;;;2.80;;
24279;SDS011;12395;42.808;23.408;2023-07-28T08:39:08;3.70;;;2.75;;
24279;SDS011;12395;42.808;23.408;2023-07-28T08:41:34;3.90;;;2.67;;
24279;SDS011;12395;42.808;23.408;2023-07-28T08:44:00;3.67;;;2.55;;
24279;SDS011;12395;42.808;23.408;2023-07-28T08:46:25;4.68;;;2.70;;
24279;SDS011;12395;42.808;23.408;2023-07-28T08:48:51;3.33;;;2.60;;
24279;SDS011;12395;42.808;23.408;2023-07-28T08:51:16;3.78;;;2.75;;
24279;SDS011;12395;42.808;23.408;2023-07-28T08:53:42;3.95;;;2.80;;
24279;SDS011;12395;42.808;23.408;2023-07-28T08:56:08;4.15;;;2.80;;
24279;SDS011;12395;42.808;23.408;2023-07-28T08:58:34;3.38;;;2.72;;
24279;SDS011;12395;42.808;23.408;2023-07-28T09:00:59;3.45;;;2.88;;
24279;SDS011;12395;42.808;23.408;2023-07-28T09:03:28;4.55;;;2.85;;
24279;SDS011;12395;42.808;23.408;2023-07-28T09:06:01;4.60;;;2.85;;
24279;SDS011;12395;42.808;23.408;2023-07-28T09:08:28;4.40;;;2.70;;
24279;SDS011;12395;42.808;23.408;2023-07-28T09:10:55;5.03;;;2.78;;
24279;SDS011;12395;42.808;23.408;2023-07-28T09:13:21;4.93;;;2.63;;
24279;SDS011;12395;42.808;23.408;2023-07-28T09:15:46;4.53;;;2.72;;
24279;SDS011;12395;42.808;23.408;2023-07-28T09:18:14;4.97;;;3.00;;
24279;SDS011;12395;42.808;23.408;2023-07-28T09:20:41;5.75;;;2.90;;
24279;SDS011;12395;42.808;23.408;2023-07-28T09:23:08;5.72;;;3.00;;
24279;SDS011;12395;42.808;23.408;2023-07-28T09:25:34;6.43;;;3.10;;
24279;SDS011;12395;42.808;23.408;2023-07-28T09:28:02;6.18;;;3.17;;
24279;SDS011;12395;42.808;23.408;2023-07-28T09:30:42;5.22;;;2.80;;
24279;SDS011;12395;42.808;23.408;2023-07-28T09:33:09;3.55;;;2.53;;
24279;SDS011;12395;42.808;23.408;2023-07-28T09:35:35;5.72;;;3.03;;
24279;SDS011;12395;42.808;23.408;2023-07-28T09:38:12;6.32;;;3.25;;
24279;SDS011;12395;42.808;23.408;2023-07-28T09:40:40;7.13;;;3.08;;
24279;SDS011;12395;42.808;23.408;2023-07-28T09:43:06;9.80;;;3.60;;
24279;SDS011;12395;42.808;23.408;2023-07-28T09:45:31;6.03;;;3.10;;
24279;SDS011;12395;42.808;23.408;2023-07-28T09:47:59;5.28;;;2.88;;
24279;SDS011;12395;42.808;23.408;2023-07-28T09:50:27;5.95;;;3.00;;
24279;SDS011;12395;42.808;23.408;2023-07-28T09:52:57;3.88;;;2.88;;
24279;SDS011;12395;42.808;23.408;2023-07-28T09:55:28;6.35;;;3.00;;
24279;SDS011;12395;42.808;23.408;2023-07-28T09:57:55;5.45;;;3.10;;
24279;SDS011;12395;42.808;23.408;2023-07-28T10:00:22;5.85;;;2.80;;
24279;SDS011;12395;42.808;23.408;2023-07-28T10:02:48;3.33;;;2.60;;
24279;SDS011;12395;42.808;23.408;2023-07-28T10:05:15;5.45;;;2.78;;
24279;SDS011;12395;42.808;23.408;2023-07-28T10:07:41;4.60;;;2.67;;
24279;SDS011;12395;42.808;23.408;2023-07-28T10:10:09;4.82;;;2.97;;
24279;SDS011;12395;42.808;23.408;2023-07-28T10:12:57;5.13;;;2.95;;
24279;SDS011;12395;42.808;23.408;2023-07-28T10:15:27;7.15;;;2.88;;
24279;SDS011;12395;42.808;23.408;2023-07-28T10:17:54;6.40;;;3.38;;
24279;SDS011;12395;42.808;23.408;2023-07-28T10:20:26;5.28;;;2.90;;
24279;SDS011;12395;42.808;23.408;2023-07-28T10:23:03;5.10;;;3.00;;
24279;SDS011;12395;42.808;23.408;2023-07-28T10:25:31;4.93;;;2.75;;
24279;SDS011;12395;42.808;23.408;2023-07-28T10:28:01;5.93;;;2.75;;
24279;SDS011;12395;42.808;23.408;2023-07-28T10:30:27;5.13;;;2.92;;
24279;SDS011;12395;42.808;23.408;2023-07-28T10:32:54;3.25;;;2.40;;
24279;SDS011;12395;42.808;23.408;2023-07-28T10:35:25;3.85;;;2.70;;
24279;SDS011;12395;42.808;23.408;2023-07-28T10:37:52;5.45;;;2.80;;
24279;SDS011;12395;42.808;23.408;2023-07-28T10:43:01;5.15;;;2.67;;
24279;SDS011;12395;42.808;23.408;2023-07-28T10:45:28;4.53;;;2.65;;
24279;SDS011;12395;42.808;23.408;2023-07-28T10:47:56;4.30;;;2.70;;
24279;SDS011;12395;42.808;23.408;2023-07-28T10:50:28;4.93;;;2.70;;
24279;SDS011;12395;42.808;23.408;2023-07-28T10:52:55;3.40;;;2.70;;
24279;SDS011;12395;42.808;23.408;2023-07-28T10:55:24;4.93;;;2.70;;
24279;SDS011;12395;42.808;23.408;2023-07-28T10:57:52;3.88;;;2.42;;
24279;SDS011;12395;42.808;23.408;2023-07-28T11:00:19;5.25;;;2.47;;
24279;SDS011;12395;42.808;23.408;2023-07-28T11:02:52;3.95;;;2.42;;
24279;SDS011;12395;42.808;23.408;2023-07-28T11:05:22;3.38;;;2.58;;
24279;SDS011;12395;42.808;23.408;2023-07-28T11:07:55;4.00;;;2.63;;
24279;SDS011;12395;42.808;23.408;2023-07-28T11:10:22;3.30;;;2.50;;
24279;SDS011;12395;42.808;23.408;2023-07-28T11:12:49;2.83;;;2.40;;
24279;SDS011;12395;42.808;23.408;2023-07-28T11:15:16;3.58;;;2.50;;
24279;SDS011;12395;42.808;23.408;2023-07-28T11:17:49;3.33;;;2.30;;
24279;SDS011;12395;42.808;23.408;2023-07-28T11:20:19;5.88;;;2.50;;
24279;SDS011;12395;42.808;23.408;2023-07-28T11:22:47;3.10;;;2.70;;
24279;SDS011;12395;42.808;23.408;2023-07-28T11:25:18;2.97;;;2.60;;
24279;SDS011;12395;42.808;23.408;2023-07-28T11:27:44;3.15;;;2.45;;
24279;SDS011;12395;42.808;23.408;2023-07-28T11:30:12;3.17;;;2.60;;
24279;SDS011;12395;42.808;23.408;2023-07-28T11:32:38;4.00;;;2.50;;
24279;SDS011;12395;42.808;23.408;2023-07-28T11:37:30;4.93;;;2.40;;
24279;SDS011;12395;42.808;23.408;2023-07-28T11:39:58;3.28;;;2.58;;
24279;SDS011;12395;42.808;23.408;2023-07-28T11:42:27;4.40;;;2.53;;
24279;SDS011;12395;42.808;23.408;2023-07-28T11:44:54;3.28;;;2.42;;
24279;SDS011;12395;42.808;23.408;2023-07-28T11:47:20;5.45;;;2.70;;
24279;SDS011;12395;42.808;23.408;2023-07-28T11:49:46;3.78;;;2.30;;
24279;SDS011;12395;42.808;23.408;2023-07-28T11:52:16;4.40;;;2.42;;
24279;SDS011;12395;42.808;23.408;2023-07-28T11:54:41;4.38;;;2.67;;
24279;SDS011;12395;42.808;23.408;2023-07-28T11:57:09;4.93;;;2.42;;
24279;SDS011;12395;42.808;23.408;2023-07-28T11:59:34;4.40;;;2.58;;
24279;SDS011;12395;42.808;23.408;2023-07-28T12:02:04;5.15;;;3.38;;
24279;SDS011;12395;42.808;23.408;2023-07-28T12:04:37;3.90;;;2.80;;
24279;SDS011;12395;42.808;23.408;2023-07-28T12:09:58;3.60;;;2.97;;
24279;SDS011;12395;42.808;23.408;2023-07-28T12:12:25;3.10;;;2.47;;
24279;SDS011;12395;42.808;23.408;2023-07-28T12:14:51;8.95;;;4.93;;
24279;SDS011;12395;42.808;23.408;2023-07-28T12:17:17;3.22;;;2.30;;
24279;SDS011;12395;42.808;23.408;2023-07-28T12:22:42;6.80;;;4.75;;
24279;SDS011;12395;42.808;23.408;2023-07-28T12:25:08;17.70;;;10.80;;
24279;SDS011;12395;42.808;23.408;2023-07-28T12:27:34;5.90;;;4.03;;
24279;SDS011;12395;42.808;23.408;2023-07-28T12:30:00;18.70;;;11.50;;
24279;SDS011;12395;42.808;23.408;2023-07-28T12:32:27;4.07;;;2.70;;
24279;SDS011;12395;42.808;23.408;2023-07-28T12:34:52;3.83;;;2.17;;
24279;SDS011;12395;42.808;23.408;2023-07-28T12:37:18;15.88;;;7.25;;
24279;SDS011;12395;42.808;23.408;2023-07-28T12:39:44;4.80;;;3.00;;
24279;SDS011;12395;42.808;23.408;2023-07-28T12:42:10;14.18;;;9.43;;
24279;SDS011;12395;42.808;23.408;2023-07-28T12:44:40;6.10;;;3.80;;
24279;SDS011;12395;42.808;23.408;2023-07-28T12:47:06;5.03;;;2.60;;
24279;SDS011;12395;42.808;23.408;2023-07-28T12:49:31;3.45;;;2.22;;
24279;SDS011;12395;42.808;23.408;2023-07-28T12:51:59;4.38;;;2.40;;
24279;SDS011;12395;42.808;23.408;2023-07-28T12:54:25;3.10;;;2.45;;
24279;SDS011;12395;42.808;23.408;2023-07-28T12:56:51;3.10;;;2.60;;
24279;SDS011;12395;42.808;23.408;2023-07-28T12:59:18;2.53;;;2.33;;
24279;SDS011;12395;42.808;23.408;2023-07-28T13:01:44;3.60;;;2.50;;
24279;SDS011;12395;42.808;23.408;2023-07-28T13:04:10;2.83;;;2.50;;
24279;SDS011;12395;42.808;23.408;2023-07-28T13:06:36;3.55;;;2.60;;
24279;SDS011;12395;42.808;23.408;2023-07-28T13:09:01;2.75;;;2.47;;
24279;SDS011;12395;42.808;23.408;2023-07-28T13:11:28;3.67;;;2.50;;
24279;SDS011;12395;42.808;23.408;2023-07-28T13:13:54;2.53;;;2.30;;
24279;SDS011;12395;42.808;23.408;2023-07-28T13:16:19;4.53;;;2.70;;
24279;SDS011;12395;42.808;23.408;2023-07-28T13:18:45;6.65;;;3.20;;
24279;SDS011;12395;42.808;23.408;2023-07-28T13:21:10;2.95;;;2.30;;
24279;SDS011;12395;42.808;23.408;2023-07-28T13:23:36;4.68;;;2.40;;
24279;SDS011;12395;42.808;23.408;2023-07-28T13:26:02;3.55;;;2.33;;
24279;SDS011;12395;42.808;23.408;2023-07-28T13:28:29;3.17;;;2.47;;
24279;SDS011;12395;42.808;23.408;2023-07-28T13:30:54;3.20;;;2.42;;
24279;SDS011;12395;42.808;23.408;2023-07-28T13:33:20;4.72;;;2.45;;
24279;SDS011;12395;42.808;23.408;2023-07-28T13:35:45;2.90;;;2.40;;
24279;SDS011;12395;42.808;23.408;2023-07-28T13:38:11;3.05;;;2.28;;
24279;SDS011;12395;42.808;23.408;2023-07-28T13:40:36;3.20;;;2.30;;
24279;SDS011;12395;42.808;23.408;2023-07-28T13:43:01;4.18;;;2.35;;
24279;SDS011;12395;42.808;23.408;2023-07-28T13:45:27;4.00;;;2.38;;
24279;SDS011;12395;42.808;23.408;2023-07-28T13:47:52;3.70;;;2.42;;
24279;SDS011;12395;42.808;23.408;2023-07-28T13:50:18;3.58;;;2.33;;
24279;SDS011;12395;42.808;23.408;2023-07-28T13:52:43;2.70;;;2.47;;
24279;SDS011;12395;42.808;23.408;2023-07-28T13:55:09;3.22;;;2.50;;
24279;SDS011;12395;42.808;23.408;2023-07-28T13:57:34;4.85;;;2.80;;
24279;SDS011;12395;42.808;23.408;2023-07-28T14:00:00;2.85;;;2.47;;
24279;SDS011;12395;42.808;23.408;2023-07-28T14:02:25;2.92;;;2.47;;
24279;SDS011;12395;42.808;23.408;2023-07-28T14:04:51;4.95;;;2.20;;
24279;SDS011;12395;42.808;23.408;2023-07-28T14:07:16;3.25;;;2.40;;
24279;SDS011;12395;42.808;23.408;2023-07-28T14:09:41;3.55;;;2.40;;
24279;SDS011;12395;42.808;23.408;2023-07-28T14:12:07;3.38;;;2.17;;
24279;SDS011;12395;42.808;23.408;2023-07-28T14:14:32;2.67;;;2.28;;
24279;SDS011;12395;42.808;23.408;2023-07-28T14:16:58;4.68;;;2.80;;
24279;SDS011;12395;42.808;23.408;2023-07-28T14:19:23;4.45;;;2.55;;
24279;SDS011;12395;42.808;23.408;2023-07-28T14:21:48;5.13;;;2.47;;
24279;SDS011;12395;42.808;23.408;2023-07-28T14:24:14;3.88;;;2.50;;
24279;SDS011;12395;42.808;23.408;2023-07-28T14:26:39;3.42;;;2.40;;
24279;SDS011;12395;42.808;23.408;2023-07-28T14:29:05;2.90;;;2.20;;
24279;SDS011;12395;42.808;23.408;2023-07-28T14:31:30;2.85;;;2.17;;
24279;SDS011;12395;42.808;23.408;2023-07-28T14:33:56;5.10;;;2.30;;
24279;SDS011;12395;42.808;23.408;2023-07-28T14:36:22;2.60;;;2.17;;
24279;SDS011;12395;42.808;23.408;2023-07-28T14:38:47;3.35;;;2.20;;
24279;SDS011;12395;42.808;23.408;2023-07-28T14:41:13;3.75;;;1.95;;
24279;SDS011;12395;42.808;23.408;2023-07-28T14:43:38;2.63;;;1.92;;